Time;durP1;ratioP1;P1;durP2;ratioP2;P2;SDS_P1;SDS_P2;PMS_P1;PMS_P2;Temp;Humidity;BMP_temperature;BMP_pressure;BME280_temperature;BME280_humidity;BME280_pressure;Samples;Min_cycle;Max_cycle;Signal;HPM_P1;HPM_P2
2023/03/07 00:01:30;;;;;;;5.97;1.73;;;21.40;52.40;;;;;;5070760;28;20210;-57
2023/03/07 00:04:02;;;;;;;3.90;1.55;;;21.40;52.50;;;;;;5071031;28;20210;-59
2023/03/07 00:06:33;;;;;;;2.95;1.60;;;21.50;52.60;;;;;;5069861;28;20198;-58
2023/03/07 00:09:05;;;;;;;6.13;1.55;;;21.50;52.70;;;;;;5070948;28;20226;-61
2023/03/07 00:11:35;;;;;;;4.43;1.90;;;21.50;52.70;;;;;;5071139;28;20195;-59
2023/03/07 00:14:09;;;;;;;3.15;1.63;;;21.60;53.00;;;;;;5073962;28;20194;-60
2023/03/07 00:16:41;;;;;;;3.30;1.30;;;21.60;53.50;;;;;;5074677;28;20187;-61
2023/03/07 00:19:12;;;;;;;2.15;1.23;;;21.60;53.40;;;;;;5074191;28;20195;-60
2023/03/07 00:21:43;;;;;;;3.17;1.17;;;21.70;53.30;;;;;;5074643;28;20650;-60
2023/03/07 00:24:13;;;;;;;2.65;1.55;;;21.70;53.20;;;;;;5073120;28;20681;-60
2023/03/07 00:26:44;;;;;;;2.67;1.33;;;21.80;53.10;;;;;;5074142;28;20199;-60
2023/03/07 00:29:15;;;;;;;2.15;1.30;;;21.80;53.10;;;;;;5073662;28;20230;-60
2023/03/07 00:31:47;;;;;;;2.03;1.10;;;21.80;53.00;;;;;;5073767;28;20191;-61
2023/03/07 00:34:18;;;;;;;2.20;1.40;;;21.80;53.00;;;;;;5073254;28;20195;-60
2023/03/07 00:36:49;;;;;;;1.85;1.40;;;21.90;53.00;;;;;;5073567;28;20191;-58
2023/03/07 00:39:19;;;;;;;3.13;1.70;;;21.90;53.10;;;;;;5074456;28;20655;-59
2023/03/07 00:41:50;;;;;;;1.58;1.30;;;21.90;53.00;;;;;;5074287;28;20195;-59
2023/03/07 00:44:21;;;;;;;2.78;1.17;;;21.90;53.00;;;;;;5072760;28;20695;-59
2023/03/07 00:46:53;;;;;;;2.88;1.10;;;21.90;53.00;;;;;;5073016;28;20199;-58
2023/03/07 00:49:24;;;;;;;3.88;1.60;;;21.90;53.00;;;;;;5073061;28;20226;-59
2023/03/07 00:51:55;;;;;;;2.22;1.40;;;22.00;53.00;;;;;;5072924;28;20273;-57
2023/03/07 00:54:26;;;;;;;2.88;1.13;;;22.00;53.00;;;;;;5073435;28;20554;-60
2023/03/07 00:56:56;;;;;;;2.13;1.00;;;22.00;52.90;;;;;;5073588;28;20199;-59
2023/03/07 00:59:27;;;;;;;1.58;0.80;;;22.10;52.90;;;;;;5073946;28;20202;-61
2023/03/07 01:02:00;;;;;;;2.80;1.10;;;22.10;52.90;;;;;;5073316;28;20206;-60
2023/03/07 01:04:30;;;;;;;2.60;1.02;;;22.10;52.90;;;;;;5072442;28;20223;-59
2023/03/07 01:07:01;;;;;;;1.30;0.75;;;22.20;52.90;;;;;;5073562;28;20187;-60
2023/03/07 01:09:32;;;;;;;2.72;1.15;;;22.10;52.80;;;;;;5072572;28;20214;-60
2023/03/07 01:12:05;;;;;;;3.28;1.10;;;22.20;52.90;;;;;;5092540;28;20186;-60
2023/03/07 01:14:36;;;;;;;1.63;1.00;;;22.20;52.80;;;;;;5085055;28;20242;-60
2023/03/07 01:17:09;;;;;;;1.95;1.00;;;22.20;52.80;;;;;;5072648;28;20195;-61
2023/03/07 01:19:39;;;;;;;1.20;0.73;;;22.20;52.80;;;;;;5072886;28;20234;-62
2023/03/07 01:22:10;;;;;;;1.70;0.80;;;22.30;52.90;;;;;;5072632;28;20187;-60
2023/03/07 01:24:41;;;;;;;2.97;1.00;;;22.30;53.10;;;;;;5070676;28;20207;-62
2023/03/07 01:27:12;;;;;;;2.95;0.90;;;22.30;53.00;;;;;;5079294;28;20195;-62
2023/03/07 01:29:43;;;;;;;1.83;0.95;;;22.30;53.10;;;;;;5072712;28;20218;-62
2023/03/07 01:32:15;;;;;;;1.00;0.90;;;22.30;53.10;;;;;;5072648;28;20191;-63
2023/03/07 01:34:46;;;;;;;2.30;0.73;;;22.40;53.20;;;;;;5072842;28;20294;-63
2023/03/07 01:37:17;;;;;;;2.33;1.10;;;22.40;53.10;;;;;;5073201;28;20191;-63
2023/03/07 01:39:57;;;;;;;3.55;1.08;;;22.40;53.10;;;;;;5072654;28;20234;-63
2023/03/07 01:42:32;;;;;;;1.73;0.68;;;22.50;53.20;;;;;;5034070;28;20188;-63
2023/03/07 01:45:10;;;;;;;3.13;1.20;;;22.50;53.10;;;;;;5070183;28;20709;-63
2023/03/07 01:47:43;;;;;;;3.30;1.15;;;22.50;53.00;;;;;;5052129;28;20199;-62
2023/03/07 01:50:17;;;;;;;2.67;0.80;;;22.50;53.00;;;;;;5053850;28;20719;-63
2023/03/07 01:52:50;;;;;;;1.90;0.90;;;22.60;53.00;;;;;;5072286;28;20197;-62
2023/03/07 01:55:22;;;;;;;2.15;0.85;;;22.60;53.00;;;;;;5072493;28;20215;-57
2023/03/07 01:57:55;;;;;;;2.85;0.98;;;22.60;53.00;;;;;;5071671;28;20202;-63
2023/03/07 02:00:28;;;;;;;0.93;0.70;;;22.60;53.30;;;;;;5072146;28;20589;-62
2023/03/07 02:03:09;;;;;;;2.88;1.00;;;22.70;53.00;;;;;;5071820;28;20198;-60
2023/03/07 02:05:41;;;;;;;2.17;1.02;;;22.70;53.10;;;;;;5071864;28;20211;-61
2023/03/07 02:08:15;;;;;;;3.00;1.15;;;22.70;53.00;;;;;;5071888;28;20202;-62
2023/03/07 02:10:46;;;;;;;3.15;1.13;;;22.80;53.10;;;;;;5070712;28;20249;-62
2023/03/07 02:13:17;;;;;;;3.13;1.17;;;22.80;53.00;;;;;;5072495;28;20199;-61
2023/03/07 02:15:49;;;;;;;2.13;0.90;;;22.80;53.10;;;;;;5071616;28;20207;-62
2023/03/07 02:18:26;;;;;;;4.03;1.08;;;22.80;53.00;;;;;;5072109;28;20202;-62
2023/03/07 02:21:03;;;;;;;2.65;1.00;;;22.80;53.00;;;;;;5071405;28;20222;-58
2023/03/07 02:23:40;;;;;;;1.83;1.00;;;22.90;53.00;;;;;;5070082;28;20194;-62
2023/03/07 02:26:17;;;;;;;2.60;0.88;;;22.90;53.00;;;;;;5071006;28;20214;-62
2023/03/07 02:28:51;;;;;;;3.78;1.08;;;22.90;52.90;;;;;;5071763;28;20198;-62
2023/03/07 02:31:21;;;;;;;1.95;0.65;;;23.00;53.00;;;;;;5083200;28;20218;-58
2023/03/07 02:33:52;;;;;;;1.95;0.80;;;23.00;52.90;;;;;;5092359;28;20194;-62
2023/03/07 02:36:27;;;;;;;2.20;0.85;;;23.00;52.90;;;;;;5092266;28;20225;-62
2023/03/07 02:38:59;;;;;;;2.10;1.00;;;23.00;52.90;;;;;;5091879;28;20196;-63
2023/03/07 02:41:33;;;;;;;2.15;0.82;;;23.00;52.90;;;;;;5091952;28;20209;-62
2023/03/07 02:44:06;;;;;;;3.13;1.02;;;23.00;52.90;;;;;;5091834;28;20194;-63
2023/03/07 02:46:36;;;;;;;2.95;1.08;;;23.00;52.90;;;;;;5091815;28;20198;-63
2023/03/07 02:49:07;;;;;;;2.22;0.98;;;23.10;53.00;;;;;;5092044;28;20202;-61
2023/03/07 02:51:38;;;;;;;2.97;1.10;;;23.10;52.90;;;;;;5091640;28;20198;-61
2023/03/07 02:54:09;;;;;;;2.35;1.00;;;23.10;52.90;;;;;;5074290;28;20199;-63
2023/03/07 02:56:39;;;;;;;2.78;1.00;;;23.10;52.90;;;;;;5071200;28;20234;-60
2023/03/07 02:59:12;;;;;;;1.58;0.80;;;23.10;52.90;;;;;;5071595;28;20226;-63
2023/03/07 03:01:43;;;;;;;2.55;1.00;;;23.20;52.90;;;;;;5071866;28;20647;-61
2023/03/07 03:04:13;;;;;;;2.13;1.02;;;23.20;52.90;;;;;;5071014;28;20203;-57
2023/03/07 03:06:44;;;;;;;2.10;0.98;;;23.20;52.90;;;;;;5070740;28;20202;-60
2023/03/07 03:09:15;;;;;;;2.83;1.23;;;23.30;53.00;;;;;;5071796;28;20206;-63
2023/03/07 03:11:45;;;;;;;2.33;1.10;;;23.30;53.00;;;;;;5071585;28;20221;-60
2023/03/07 03:14:18;;;;;;;2.67;1.00;;;23.30;53.00;;;;;;5071686;28;20206;-62
2023/03/07 03:16:49;;;;;;;3.08;1.30;;;23.30;53.00;;;;;;5071695;28;20199;-60
2023/03/07 03:19:20;;;;;;;2.15;1.30;;;23.30;53.00;;;;;;5071227;28;20198;-62
2023/03/07 03:21:51;;;;;;;2.75;1.00;;;23.30;53.00;;;;;;5071660;28;20203;-61
2023/03/07 03:24:22;;;;;;;4.70;1.20;;;23.30;53.00;;;;;;5070844;28;20211;-62
2023/03/07 03:26:53;;;;;;;2.25;0.93;;;23.40;53.00;;;;;;5070516;28;20570;-62
2023/03/07 03:29:26;;;;;;;5.20;1.40;;;23.40;53.10;;;;;;5070848;28;20654;-63
2023/03/07 03:31:57;;;;;;;1.50;1.13;;;23.40;53.10;;;;;;5071017;28;20720;-63
2023/03/07 03:34:27;;;;;;;5.10;1.20;;;23.50;53.20;;;;;;5070979;28;20690;-62
2023/03/07 03:36:58;;;;;;;2.25;1.15;;;23.50;53.20;;;;;;5071434;28;20210;-63
2023/03/07 03:39:30;;;;;;;3.58;1.13;;;23.50;53.20;;;;;;5070510;28;20206;-61
2023/03/07 03:42:00;;;;;;;2.15;1.20;;;23.50;53.10;;;;;;5071044;28;20249;-62
2023/03/07 03:44:33;;;;;;;2.67;1.05;;;23.60;53.20;;;;;;5070381;28;20210;-61
2023/03/07 03:47:03;;;;;;;2.38;0.82;;;23.60;53.10;;;;;;5072830;28;20198;-61
2023/03/07 03:49:34;;;;;;;3.20;1.10;;;23.60;53.10;;;;;;5075114;28;20680;-59
2023/03/07 03:52:05;;;;;;;1.77;0.93;;;23.70;53.10;;;;;;5075152;28;20542;-60
2023/03/07 03:54:36;;;;;;;2.83;1.05;;;23.70;53.00;;;;;;5074760;28;20242;-63
2023/03/07 03:57:07;;;;;;;2.90;1.13;;;23.70;53.00;;;;;;5074993;28;20199;-57
2023/03/07 03:59:39;;;;;;;2.80;1.05;;;23.70;52.90;;;;;;5075211;28;20198;-61
2023/03/07 04:02:10;;;;;;;3.35;1.10;;;23.80;53.00;;;;;;5074908;28;20257;-59
2023/03/07 04:04:41;;;;;;;4.47;1.70;;;23.80;52.90;;;;;;5074132;28;20231;-60
2023/03/07 04:07:11;;;;;;;3.10;1.40;;;23.80;53.00;;;;;;5074383;28;20198;-60
2023/03/07 04:09:42;;;;;;;3.97;1.10;;;23.80;53.00;;;;;;5074249;28;20281;-58
2023/03/07 04:12:13;;;;;;;2.42;1.40;;;23.80;53.00;;;;;;5074696;28;20202;-59
2023/03/07 04:14:45;;;;;;;2.42;1.38;;;23.90;53.00;;;;;;5074429;28;20599;-58
2023/03/07 04:17:16;;;;;;;3.00;0.98;;;23.90;52.90;;;;;;5075131;28;20205;-60
2023/03/07 04:19:47;;;;;;;3.03;1.30;;;23.90;52.90;;;;;;5075243;28;20195;-60
2023/03/07 04:22:17;;;;;;;5.05;1.38;;;23.90;52.80;;;;;;5074632;28;20206;-60
2023/03/07 04:24:48;;;;;;;3.53;1.05;;;24.00;52.90;;;;;;5070883;28;20214;-59
2023/03/07 04:27:19;;;;;;;3.22;1.27;;;24.00;52.80;;;;;;5074456;28;20207;-58
2023/03/07 04:29:51;;;;;;;3.22;1.30;;;24.00;52.80;;;;;;5074443;28;20203;-59
2023/03/07 04:32:22;;;;;;;2.15;1.17;;;24.00;52.70;;;;;;5074428;28;20190;-58
2023/03/07 04:34:53;;;;;;;2.85;1.30;;;24.00;52.60;;;;;;5071690;28;20715;-58
2023/03/07 04:37:25;;;;;;;2.65;1.20;;;24.00;52.60;;;;;;5073780;28;20198;-59
2023/03/07 04:39:56;;;;;;;4.07;1.13;;;24.00;52.60;;;;;;5073939;28;20190;-59
2023/03/07 04:42:26;;;;;;;3.65;1.20;;;24.00;52.60;;;;;;5073947;28;20206;-58
2023/03/07 04:44:59;;;;;;;2.08;1.20;;;24.10;52.60;;;;;;5069315;28;20206;-59
2023/03/07 04:47:29;;;;;;;2.00;1.00;;;24.10;52.60;;;;;;5065940;28;20852;-59
2023/03/07 04:50:00;;;;;;;1.80;1.10;;;24.10;52.60;;;;;;5065273;28;20191;-59
2023/03/07 04:52:31;;;;;;;3.17;1.20;;;24.00;52.60;;;;;;5065182;28;20576;-58
2023/03/07 04:55:01;;;;;;;2.47;1.10;;;24.10;52.60;;;;;;5073653;28;20566;-59
2023/03/07 04:57:32;;;;;;;1.83;1.00;;;24.10;52.60;;;;;;5074303;28;20207;-59
2023/03/07 05:00:08;;;;;;;3.83;1.10;;;24.10;52.60;;;;;;5074249;28;20202;-59
2023/03/07 05:02:38;;;;;;;3.40;1.17;;;24.10;52.50;;;;;;5073775;28;20194;-59
2023/03/07 05:05:09;;;;;;;3.00;1.42;;;24.20;52.50;;;;;;5073400;28;20219;-59
2023/03/07 05:07:40;;;;;;;3.60;1.27;;;24.20;52.50;;;;;;5073931;28;20202;-60
2023/03/07 05:10:12;;;;;;;2.75;0.88;;;24.20;52.40;;;;;;5074059;28;20193;-60
2023/03/07 05:12:43;;;;;;;2.83;1.00;;;24.20;52.40;;;;;;5074138;28;20206;-59
2023/03/07 05:15:16;;;;;;;2.38;1.10;;;24.20;52.30;;;;;;5073835;28;20210;-61
2023/03/07 05:17:46;;;;;;;2.83;1.20;;;24.30;52.30;;;;;;5073872;28;20203;-59
2023/03/07 05:20:17;;;;;;;4.45;1.33;;;24.30;52.30;;;;;;5073852;28;20195;-60
2023/03/07 05:22:48;;;;;;;2.58;1.20;;;24.30;52.20;;;;;;5073567;28;20234;-59
2023/03/07 05:25:19;;;;;;;2.40;1.25;;;24.30;52.20;;;;;;5073310;28;20223;-60
2023/03/07 05:27:50;;;;;;;3.55;1.50;;;24.30;52.20;;;;;;5073066;28;20210;-59
2023/03/07 05:30:22;;;;;;;4.18;1.70;;;24.40;52.20;;;;;;5073099;28;20222;-59
2023/03/07 05:32:53;;;;;;;2.35;1.50;;;24.40;52.20;;;;;;5073260;28;20203;-59
2023/03/07 05:35:24;;;;;;;4.85;1.55;;;24.40;52.20;;;;;;5072509;28;20210;-59
2023/03/07 05:37:55;;;;;;;2.90;1.30;;;24.40;52.10;;;;;;5072528;28;20201;-58
2023/03/07 05:40:25;;;;;;;3.20;1.40;;;24.50;52.20;;;;;;5073157;28;20191;-58
2023/03/07 05:42:57;;;;;;;3.78;1.25;;;24.50;52.20;;;;;;5072972;28;20195;-59
2023/03/07 05:45:30;;;;;;;2.95;1.25;;;24.50;52.10;;;;;;5072811;28;20226;-59
2023/03/07 05:48:00;;;;;;;2.53;1.23;;;24.50;52.10;;;;;;5072667;28;20194;-58
2023/03/07 05:50:31;;;;;;;3.90;1.42;;;24.50;52.00;;;;;;5072661;28;20214;-58
2023/03/07 05:53:02;;;;;;;3.90;1.65;;;24.50;52.00;;;;;;5072720;28;20547;-59
2023/03/07 05:55:33;;;;;;;3.60;1.20;;;24.50;52.00;;;;;;5072355;28;20276;-58
2023/03/07 05:58:04;;;;;;;3.15;1.20;;;24.60;52.10;;;;;;5073079;28;20202;-59
2023/03/07 06:00:36;;;;;;;3.17;1.50;;;24.60;52.00;;;;;;5072111;28;20183;-59
2023/03/07 06:03:07;;;;;;;3.53;1.30;;;24.50;52.00;;;;;;5072485;28;20566;-59
2023/03/07 06:05:38;;;;;;;2.50;0.93;;;24.60;52.00;;;;;;5071884;28;20808;-59
2023/03/07 06:08:08;;;;;;;3.08;1.08;;;24.60;52.00;;;;;;5072043;28;20652;-58
2023/03/07 06:10:39;;;;;;;3.40;1.20;;;24.50;51.90;;;;;;5072140;28;20226;-58
2023/03/07 06:13:14;;;;;;;2.33;1.25;;;24.60;52.00;;;;;;5072539;28;20195;-60
2023/03/07 06:15:46;;;;;;;2.67;1.23;;;24.60;52.00;;;;;;5071701;28;20210;-60
2023/03/07 06:18:17;;;;;;;2.35;1.30;;;24.50;52.00;;;;;;5071739;28;20191;-58
2023/03/07 06:20:55;;;;;;;1.45;1.00;;;24.60;51.90;;;;;;5071975;28;20201;-59
2023/03/07 06:23:26;;;;;;;2.47;1.20;;;24.50;51.80;;;;;;5071871;28;20234;-60
2023/03/07 06:25:57;;;;;;;3.05;1.27;;;24.50;51.80;;;;;;5071239;28;20221;-58
2023/03/07 06:28:28;;;;;;;1.70;1.00;;;24.50;51.70;;;;;;5072223;28;20194;-58
2023/03/07 06:31:00;;;;;;;2.75;0.93;;;24.50;51.70;;;;;;5075049;28;20222;-58
2023/03/07 06:33:31;;;;;;;2.60;1.33;;;24.50;51.60;;;;;;5092344;28;20705;-59
2023/03/07 06:36:05;;;;;;;1.85;1.20;;;24.50;51.60;;;;;;5092472;28;20228;-59
2023/03/07 06:38:36;;;;;;;3.25;1.20;;;24.50;51.70;;;;;;5092322;28;20650;-59
2023/03/07 06:41:07;;;;;;;1.88;1.00;;;24.50;51.60;;;;;;5091541;28;20440;-59
2023/03/07 06:43:38;;;;;;;2.25;1.20;;;24.50;51.60;;;;;;5074206;28;20221;-58
2023/03/07 06:46:11;;;;;;;2.05;1.10;;;24.50;51.60;;;;;;5071709;28;20219;-59
2023/03/07 06:48:41;;;;;;;3.28;1.30;;;24.50;51.60;;;;;;5071590;28;20568;-59
2023/03/07 06:51:13;;;;;;;2.10;1.10;;;24.50;51.70;;;;;;5071247;28;20231;-58
2023/03/07 06:53:43;;;;;;;1.10;0.90;;;24.40;51.60;;;;;;5071422;28;20206;-58
2023/03/07 06:56:14;;;;;;;4.22;1.40;;;24.40;51.70;;;;;;5070961;28;20701;-58
2023/03/07 06:58:45;;;;;;;2.95;1.20;;;24.40;51.60;;;;;;5071309;28;20677;-59
2023/03/07 07:01:21;;;;;;;2.45;1.30;;;24.40;51.60;;;;;;5071591;28;20593;-60
2023/03/07 07:03:52;;;;;;;2.15;1.17;;;24.40;51.60;;;;;;5071465;28;20202;-59
2023/03/07 07:06:23;;;;;;;2.55;1.13;;;24.40;51.60;;;;;;5071003;28;20215;-59
2023/03/07 07:08:57;;;;;;;2.72;1.20;;;24.40;51.60;;;;;;5071179;28;20201;-60
2023/03/07 07:11:28;;;;;;;2.38;1.17;;;24.40;51.60;;;;;;5070839;28;20226;-59
2023/03/07 07:13:59;;;;;;;2.40;1.25;;;24.30;51.50;;;;;;5070340;28;20531;-60
2023/03/07 07:16:32;;;;;;;3.90;1.40;;;24.30;52.10;;;;;;5071085;28;20195;-60
2023/03/07 07:19:03;;;;;;;2.05;1.30;;;24.30;51.50;;;;;;5070853;28;20205;-59
2023/03/07 07:21:34;;;;;;;2.67;1.25;;;24.30;51.60;;;;;;5070551;28;20202;-60
2023/03/07 07:24:04;;;;;;;4.28;1.20;;;24.30;51.50;;;;;;5071223;28;20676;-59
2023/03/07 07:26:35;;;;;;;2.20;1.20;;;24.30;51.60;;;;;;5071216;28;20224;-59
2023/03/07 07:29:06;;;;;;;2.13;1.20;;;24.30;51.60;;;;;;5070997;28;20190;-60
2023/03/07 07:31:38;;;;;;;2.20;1.10;;;24.20;51.60;;;;;;5071075;28;20226;-59
2023/03/07 07:34:09;;;;;;;1.88;0.90;;;24.20;51.60;;;;;;5068252;28;20190;-59
2023/03/07 07:36:40;;;;;;;2.28;1.10;;;24.30;51.60;;;;;;5070420;28;20203;-59
2023/03/07 07:39:14;;;;;;;3.70;1.15;;;24.20;51.60;;;;;;5071324;28;20202;-59
2023/03/07 07:41:45;;;;;;;1.85;1.08;;;24.20;51.60;;;;;;5071304;28;20191;-55
2023/03/07 07:44:15;;;;;;;2.40;1.00;;;24.20;51.60;;;;;;5070825;28;20217;-59
2023/03/07 07:46:48;;;;;;;2.38;1.10;;;24.20;51.60;;;;;;5071005;28;20195;-60
2023/03/07 07:49:19;;;;;;;2.53;1.00;;;24.20;51.60;;;;;;5071057;28;20195;-59
2023/03/07 07:51:49;;;;;;;2.80;1.17;;;24.20;51.70;;;;;;5070812;28;20234;-60
2023/03/07 07:54:20;;;;;;;3.20;1.27;;;24.10;51.70;;;;;;5070420;28;20200;-60
2023/03/07 07:56:50;;;;;;;2.63;1.38;;;24.10;51.70;;;;;;5070572;28;20198;-59
2023/03/07 07:59:21;;;;;;;2.75;1.20;;;24.10;51.70;;;;;;5070404;28;20205;-60
2023/03/07 08:01:54;;;;;;;2.88;1.25;;;24.10;51.70;;;;;;5070306;28;20221;-59
2023/03/07 08:04:24;;;;;;;2.80;1.10;;;24.00;51.70;;;;;;5070650;28;20233;-58
2023/03/07 08:06:55;;;;;;;1.65;0.90;;;24.00;51.60;;;;;;5070713;28;20218;-59
2023/03/07 08:09:26;;;;;;;3.25;1.10;;;24.00;51.70;;;;;;5071073;28;20194;-59
2023/03/07 08:11:56;;;;;;;3.95;1.38;;;24.00;51.70;;;;;;5070861;28;20236;-61
2023/03/07 08:14:27;;;;;;;2.33;1.08;;;24.00;51.70;;;;;;5070931;28;20578;-62
2023/03/07 08:17:00;;;;;;;3.50;1.38;;;24.00;51.70;;;;;;5062504;28;20187;-60
2023/03/07 08:19:30;;;;;;;4.00;1.35;;;24.00;51.70;;;;;;5061573;28;20206;-59
2023/03/07 08:22:01;;;;;;;4.03;1.20;;;24.00;51.80;;;;;;5061758;28;20199;-61
2023/03/07 08:24:34;;;;;;;2.65;1.15;;;24.00;51.80;;;;;;5058529;28;20666;-60
2023/03/07 08:27:04;;;;;;;3.60;1.33;;;24.00;51.90;;;;;;5067072;28;20231;-60
2023/03/07 08:29:35;;;;;;;2.50;1.20;;;23.90;51.80;;;;;;5070889;28;20525;-60
2023/03/07 08:32:08;;;;;;;3.50;1.27;;;23.90;51.90;;;;;;5070918;28;20710;-60
2023/03/07 08:34:39;;;;;;;2.53;1.33;;;23.90;51.90;;;;;;5093978;28;20217;-59
2023/03/07 08:37:10;;;;;;;2.90;1.10;;;23.90;51.90;;;;;;5054386;28;20199;-60
2023/03/07 08:39:40;;;;;;;2.20;1.30;;;23.80;51.90;;;;;;5074245;28;20206;-60
2023/03/07 08:42:11;;;;;;;1.98;1.05;;;23.80;51.90;;;;;;5073319;28;20183;-60
2023/03/07 08:44:42;;;;;;;2.70;1.20;;;23.80;51.90;;;;;;5073822;28;20554;-60
2023/03/07 08:47:14;;;;;;;2.30;1.05;;;23.80;51.90;;;;;;5073583;28;20240;-61
2023/03/07 08:49:45;;;;;;;2.45;1.20;;;23.80;51.90;;;;;;5093976;28;20190;-60
2023/03/07 08:52:16;;;;;;;2.30;1.35;;;23.80;51.90;;;;;;5094248;28;20591;-60
2023/03/07 08:54:46;;;;;;;2.67;1.15;;;23.80;51.90;;;;;;5093600;28;20210;-60
2023/03/07 08:57:17;;;;;;;2.53;1.05;;;23.80;52.00;;;;;;5080681;28;20199;-60
2023/03/07 08:59:48;;;;;;;3.08;1.23;;;23.70;51.90;;;;;;5074089;28;20206;-60
2023/03/07 09:02:21;;;;;;;3.70;1.40;;;23.70;51.90;;;;;;5074336;28;20203;-60
2023/03/07 09:04:52;;;;;;;2.35;0.95;;;23.70;51.90;;;;;;5063818;28;20230;-60
2023/03/07 09:07:23;;;;;;;2.78;1.23;;;23.70;51.90;;;;;;5073508;28;20612;-60
2023/03/07 09:09:53;;;;;;;2.25;1.00;;;23.70;51.90;;;;;;5093848;28;20649;-60
2023/03/07 09:12:24;;;;;;;2.40;1.15;;;23.70;51.90;;;;;;5093679;28;20214;-60
2023/03/07 09:14:56;;;;;;;2.15;1.10;;;23.60;51.80;;;;;;5093817;28;20226;-60
2023/03/07 09:17:32;;;;;;;1.98;1.00;;;23.60;51.90;;;;;;5078356;28;20195;-60
2023/03/07 09:20:03;;;;;;;2.30;1.20;;;23.60;51.80;;;;;;5066946;28;20559;-60
2023/03/07 09:22:34;;;;;;;3.33;1.20;;;23.50;51.80;;;;;;5070420;28;20202;-60
2023/03/07 09:25:05;;;;;;;2.22;1.10;;;23.50;51.80;;;;;;5065566;28;20222;-60
2023/03/07 09:27:35;;;;;;;2.28;1.10;;;23.50;51.80;;;;;;5072932;28;20249;-60
2023/03/07 09:30:07;;;;;;;2.03;0.98;;;23.50;51.90;;;;;;5053611;28;20195;-60
2023/03/07 09:32:39;;;;;;;2.03;1.02;;;23.50;51.80;;;;;;5053100;28;20242;-60
2023/03/07 09:35:10;;;;;;;1.77;1.00;;;23.50;51.90;;;;;;5053319;28;20218;-60
2023/03/07 09:37:41;;;;;;;1.55;1.08;;;23.40;51.80;;;;;;5065681;28;20268;-60
2023/03/07 09:40:22;;;;;;;1.85;1.17;;;23.50;51.80;;;;;;5072973;28;20698;-61
2023/03/07 09:43:03;;;;;;;1.50;1.15;;;23.40;51.80;;;;;;5073016;28;20249;-60
2023/03/07 09:45:54;;;;;;;1.33;1.00;;;23.40;51.70;;;;;;5072155;28;20554;-61
2023/03/07 09:48:47;;;;;;;1.35;0.95;;;23.40;51.80;;;;;;5073101;28;20191;-60
2023/03/07 09:51:22;;;;;;;1.67;0.80;;;23.40;51.80;;;;;;5072897;28;20198;-59
2023/03/07 09:53:56;;;;;;;1.85;1.00;;;23.30;51.70;;;;;;5072472;28;20410;-59
2023/03/07 09:56:31;;;;;;;1.00;0.85;;;23.30;51.70;;;;;;5072373;28;20215;-60
2023/03/07 09:59:09;;;;;;;2.00;1.23;;;23.30;51.70;;;;;;5072606;28;20201;-59
2023/03/07 10:01:41;;;;;;;1.20;0.98;;;23.30;51.70;;;;;;5072794;28;20202;-59
2023/03/07 10:04:21;;;;;;;1.52;0.90;;;23.30;51.70;;;;;;5072571;28;20199;-59
2023/03/07 10:06:56;;;;;;;1.80;0.85;;;23.20;51.70;;;;;;5072395;28;20195;-59
2023/03/07 10:09:27;;;;;;;1.35;0.80;;;23.20;51.70;;;;;;5072559;28;20190;-59
2023/03/07 10:12:13;;;;;;;1.05;0.88;;;23.20;51.80;;;;;;5071802;28;20225;-59
2023/03/07 10:14:55;;;;;;;1.80;0.90;;;23.20;51.80;;;;;;5072712;28;20237;-59
2023/03/07 10:17:39;;;;;;;3.55;1.10;;;23.20;51.80;;;;;;5071653;28;20191;-59
2023/03/07 10:20:20;;;;;;;1.48;0.90;;;23.20;51.80;;;;;;5072242;28;20195;-59
2023/03/07 10:23:02;;;;;;;1.27;0.90;;;23.20;51.80;;;;;;5071779;28;20199;-60
2023/03/07 10:25:35;;;;;;;1.42;1.00;;;23.10;51.70;;;;;;5071748;28;20229;-59
2023/03/07 10:28:24;;;;;;;1.65;0.90;;;23.10;51.70;;;;;;5052406;28;20195;-59
2023/03/07 10:30:59;;;;;;;1.23;0.80;;;23.10;51.80;;;;;;5072255;28;20202;-59
2023/03/07 10:33:32;;;;;;;1.05;0.70;;;23.10;51.70;;;;;;5071964;28;20242;-59
2023/03/07 10:36:08;;;;;;;2.33;0.93;;;23.00;51.70;;;;;;5071574;28;20211;-59
2023/03/07 10:38:47;;;;;;;1.35;0.80;;;23.00;51.70;;;;;;5071383;28;20182;-59
2023/03/07 10:41:20;;;;;;;1.00;0.77;;;23.00;51.70;;;;;;5071565;28;20650;-59
2023/03/07 10:43:53;;;;;;;1.60;0.70;;;23.00;51.70;;;;;;5071712;28;20669;-59
2023/03/07 10:46:25;;;;;;;1.73;0.90;;;23.00;51.70;;;;;;5071419;28;20441;-59
2023/03/07 10:48:57;;;;;;;1.05;0.75;;;22.90;51.70;;;;;;5071470;28;20202;-59
2023/03/07 10:51:45;;;;;;;1.10;0.80;;;22.90;51.70;;;;;;5070652;28;20721;-59
2023/03/07 10:54:19;;;;;;;1.33;0.88;;;22.90;51.80;;;;;;5071298;28;20281;-59
2023/03/07 10:57:07;;;;;;;1.15;0.95;;;22.90;51.70;;;;;;5071525;28;20209;-59
2023/03/07 10:59:39;;;;;;;1.48;0.90;;;22.90;51.70;;;;;;5071552;28;20654;-59
2023/03/07 11:02:33;;;;;;;1.17;0.70;;;22.90;51.70;;;;;;5071744;28;20195;-59
2023/03/07 11:05:04;;;;;;;1.58;0.82;;;22.90;51.70;;;;;;5070292;28;20724;-59
2023/03/07 11:07:38;;;;;;;1.70;0.80;;;22.90;51.70;;;;;;5070196;28;20272;-59
2023/03/07 11:10:29;;;;;;;1.02;0.70;;;22.90;51.70;;;;;;5067988;28;20191;-58
2023/03/07 11:12:59;;;;;;;1.80;0.88;;;22.80;51.70;;;;;;5069548;28;20238;-59
2023/03/07 11:15:30;;;;;;;1.27;0.70;;;22.80;51.70;;;;;;5070525;28;20202;-59
2023/03/07 11:18:01;;;;;;;0.90;0.70;;;22.80;51.70;;;;;;5070378;28;20665;-59
2023/03/07 11:20:33;;;;;;;2.20;0.80;;;22.80;51.70;;;;;;5070150;28;20191;-59
2023/03/07 11:23:22;;;;;;;1.05;0.70;;;22.80;51.70;;;;;;5067477;28;20659;-59
2023/03/07 11:25:53;;;;;;;2.58;0.88;;;22.70;51.70;;;;;;5070542;28;20225;-59
2023/03/07 11:28:33;;;;;;;1.77;0.80;;;22.70;51.70;;;;;;5071484;28;20201;-59
2023/03/07 11:31:20;;;;;;;0.80;0.80;;;22.70;51.70;;;;;;5070682;28;20714;-59
2023/03/07 11:33:58;;;;;;;1.00;0.73;;;22.70;51.70;;;;;;5070825;28;20262;-59
2023/03/07 11:36:32;;;;;;;0.70;0.60;;;22.70;51.70;;;;;;5071131;28;20194;-59
2023/03/07 11:39:13;;;;;;;0.70;0.68;;;22.60;51.70;;;;;;5070980;28;20621;-59
2023/03/07 11:41:47;;;;;;;1.70;0.98;;;22.70;51.70;;;;;;5071057;28;20646;-59
2023/03/07 11:44:34;;;;;;;1.83;0.85;;;22.60;51.70;;;;;;5070594;28;20658;-59
2023/03/07 11:47:33;;;;;;;0.93;0.70;;;22.60;51.70;;;;;;5071325;28;20203;-59
2023/03/07 11:50:22;;;;;;;1.00;0.60;;;22.60;51.70;;;;;;5071233;28;20241;-59
2023/03/07 11:53:11;;;;;;;1.77;0.82;;;22.60;51.70;;;;;;5070821;28;20229;-59
2023/03/07 11:55:49;;;;;;;1.15;0.63;;;22.60;51.70;;;;;;5071593;28;20678;-59
2023/03/07 11:58:44;;;;;;;0.75;0.50;;;22.60;51.70;;;;;;5071283;28;20194;-59
2023/03/07 12:01:24;;;;;;;1.00;0.70;;;22.50;51.70;;;;;;5071500;28;20201;-59
2023/03/07 12:04:32;;;;;;;1.48;0.60;;;22.50;51.70;;;;;;5070103;28;20205;-59
2023/03/07 12:07:12;;;;;;;0.88;0.80;;;22.50;51.70;;;;;;5062082;28;20313;-58
2023/03/07 12:09:53;;;;;;;0.80;0.60;;;22.50;51.70;;;;;;5065121;28;20230;-59
2023/03/07 12:12:54;;;;;;;2.03;0.88;;;22.50;51.70;;;;;;5066080;28;20285;-59
2023/03/07 12:15:37;;;;;;;1.23;0.68;;;22.50;51.70;;;;;;5065721;28;20869;-58
2023/03/07 12:18:33;;;;;;;1.80;0.90;;;22.50;51.70;;;;;;5065892;28;20871;-58
2023/03/07 12:21:16;;;;;;;1.02;0.63;;;22.50;51.70;;;;;;5066287;28;20195;-59
2023/03/07 12:23:50;;;;;;;1.42;0.73;;;22.50;51.70;;;;;;5066265;28;20203;-59
2023/03/07 12:26:27;;;;;;;0.88;0.60;;;22.40;51.70;;;;;;5065234;28;20226;-59
2023/03/07 12:29:04;;;;;;;0.73;0.52;;;22.50;51.70;;;;;;5068280;28;20205;-59
2023/03/07 12:31:39;;;;;;;1.00;0.73;;;22.40;51.70;;;;;;5074688;28;20199;-59
2023/03/07 12:34:15;;;;;;;0.88;0.60;;;22.40;51.70;;;;;;5074962;28;20571;-59
2023/03/07 12:36:51;;;;;;;0.50;0.40;;;22.40;51.70;;;;;;5074626;28;20573;-59
2023/03/07 12:39:26;;;;;;;1.10;0.65;;;22.40;51.70;;;;;;5074479;28;20198;-59
2023/03/07 12:42:03;;;;;;;0.80;0.60;;;22.30;51.70;;;;;;5074057;28;20712;-59
2023/03/07 12:44:40;;;;;;;1.05;0.60;;;22.40;51.70;;;;;;5072225;28;20573;-59
2023/03/07 12:47:21;;;;;;;1.38;0.55;;;22.30;51.70;;;;;;5074510;28;20205;-59
2023/03/07 12:50:01;;;;;;;1.02;0.60;;;22.40;51.80;;;;;;5069420;28;20195;-58
2023/03/07 12:52:43;;;;;;;1.08;0.57;;;22.30;51.70;;;;;;5065624;28;20197;-58
2023/03/07 12:55:24;;;;;;;1.50;0.88;;;22.30;51.70;;;;;;5066052;28;20253;-58
2023/03/07 12:58:04;;;;;;;1.15;0.75;;;22.30;51.70;;;;;;5065779;28;20219;-59
2023/03/07 13:00:42;;;;;;;0.60;0.55;;;22.30;51.70;;;;;;5064719;28;20279;-58
2023/03/07 13:03:18;;;;;;;0.75;0.50;;;22.30;51.60;;;;;;5065357;28;20206;-58
2023/03/07 13:05:51;;;;;;;0.50;0.50;;;22.30;51.60;;;;;;5065707;28;20210;-58
2023/03/07 13:08:24;;;;;;;0.80;0.50;;;22.30;51.60;;;;;;5065428;28;20195;-58
2023/03/07 13:10:55;;;;;;;1.05;0.60;;;22.30;51.60;;;;;;5073544;28;20199;-58
2023/03/07 13:13:51;;;;;;;0.73;0.55;;;22.30;51.70;;;;;;5074173;28;20230;-59
2023/03/07 13:16:41;;;;;;;0.50;0.50;;;22.20;51.70;;;;;;5073938;28;20238;-59
2023/03/07 13:19:59;;;;;;;0.82;0.60;;;22.20;51.60;;;;;;5072648;28;20190;-59
2023/03/07 13:23:03;;;;;;;0.68;0.50;;;22.20;51.70;;;;;;5011011;28;20197;-59